createdAt,value
2017-11-12T00:00:02.182Z,76.70
2017-11-12T00:02:30.295Z,76.80
2017-11-12T00:04:59.194Z,77.10
2017-11-12T00:07:28.075Z,77.30
2017-11-12T00:09:56.987Z,77.70
2017-11-12T00:12:25.111Z,77.60
2017-11-12T00:14:53.269Z,76.90
2017-11-12T00:17:21.404Z,76.80
2017-11-12T00:19:49.558Z,76.90
2017-11-12T00:22:19.374Z,76.80
2017-11-12T00:24:48.284Z,76.30
2017-11-12T00:27:16.407Z,76.30
2017-11-12T00:29:44.600Z,76.70
2017-11-12T00:32:12.723Z,76.90
2017-11-12T00:34:40.838Z,76.90
2017-11-12T00:37:08.980Z,76.60
2017-11-12T00:39:37.105Z,75.80
2017-11-12T00:42:06.013Z,75.70
2017-11-12T00:44:34.136Z,75.70
2017-11-12T00:47:02.300Z,76.40
2017-11-12T00:49:30.439Z,76.50
2017-11-12T00:51:58.593Z,76.50
2017-11-12T00:54:27.479Z,76.90
2017-11-12T00:56:56.384Z,77.00
2017-11-12T00:59:24.496Z,77.00
2017-11-12T01:01:52.645Z,77.20
2017-11-12T01:04:20.776Z,77.40
2017-11-12T01:06:48.929Z,77.60
2017-11-12T01:09:17.054Z,77.40
2017-11-12T01:11:45.211Z,77.70
2017-11-12T01:14:14.104Z,77.60
2017-11-12T01:16:43.025Z,77.40
2017-11-12T01:19:11.160Z,77.40
2017-11-12T01:21:40.081Z,77.40
2017-11-12T01:24:08.231Z,77.10
2017-11-12T01:26:37.148Z,77.00
2017-11-12T01:29:05.283Z,77.00
2017-11-12T01:31:33.422Z,76.90
2017-11-12T01:34:01.561Z,76.60
2017-11-12T01:36:29.710Z,76.80
2017-11-12T01:38:58.600Z,77.00
2017-11-12T01:41:26.759Z,77.00
2017-11-12T01:43:54.884Z,77.00
2017-11-12T01:46:23.038Z,77.10
2017-11-12T01:48:51.168Z,77.00
2017-11-12T01:51:19.340Z,77.10
2017-11-12T01:53:47.464Z,77.00
2017-11-12T01:56:15.608Z,76.80
2017-11-12T01:58:43.780Z,77.50
2017-11-12T02:01:11.907Z,78.20
2017-11-12T02:03:40.046Z,77.40
2017-11-12T02:06:08.928Z,77.30
2017-11-12T02:08:37.882Z,77.00
2017-11-12T02:11:06.001Z,77.00
2017-11-12T02:13:34.916Z,76.90
2017-11-12T02:16:03.031Z,76.90
2017-11-12T02:18:31.172Z,77.00
2017-11-12T02:20:59.313Z,76.90
2017-11-12T02:23:28.235Z,76.80
2017-11-12T02:25:56.372Z,76.80
2017-11-12T02:28:25.277Z,76.80
2017-11-12T02:30:53.439Z,76.80
2017-11-12T02:33:22.342Z,76.90
2017-11-12T02:35:50.469Z,76.90
2017-11-12T02:38:18.622Z,77.20
2017-11-12T02:40:46.761Z,77.30
2017-11-12T02:43:15.183Z,77.20
2017-11-12T02:45:43.297Z,76.90
2017-11-12T02:48:12.210Z,76.90
2017-11-12T02:50:40.395Z,76.90
2017-11-12T02:53:08.538Z,76.90
2017-11-12T02:55:37.423Z,77.00
2017-11-12T02:58:06.319Z,77.10
2017-11-12T03:00:35.209Z,77.00
2017-11-12T03:03:04.132Z,76.90
2017-11-12T03:05:32.247Z,76.90
2017-11-12T03:08:00.379Z,77.00
2017-11-12T03:10:28.524Z,77.30
2017-11-12T03:12:57.398Z,77.70
2017-11-12T03:15:25.531Z,77.60
2017-11-12T03:17:53.677Z,77.60
2017-11-12T03:20:21.823Z,77.40
2017-11-12T03:22:49.952Z,77.10
2017-11-12T03:25:18.097Z,76.80
2017-11-12T03:27:46.276Z,76.50
2017-11-12T03:30:14.437Z,76.50
2017-11-12T03:32:42.572Z,76.80
2017-11-12T03:35:10.716Z,76.40
2017-11-12T03:37:38.849Z,76.50
2017-11-12T03:40:07.764Z,76.30
2017-11-12T03:42:35.888Z,76.30
2017-11-12T03:45:04.039Z,76.90
2017-11-12T03:47:32.180Z,76.80
2017-11-12T03:50:00.329Z,76.80
2017-11-12T03:52:29.227Z,77.20
2017-11-12T03:54:58.147Z,77.00
2017-11-12T03:57:26.283Z,76.90
2017-11-12T03:59:55.201Z,76.70
2017-11-12T04:02:23.319Z,76.70
2017-11-12T04:04:51.501Z,76.80
2017-11-12T04:07:19.640Z,76.80
2017-11-12T04:09:47.813Z,76.60
2017-11-12T04:12:15.936Z,76.50
2017-11-12T04:14:44.861Z,77.40
2017-11-12T04:17:12.989Z,76.70
2017-11-12T04:19:41.136Z,76.90
2017-11-12T04:22:09.266Z,76.00
2017-11-12T04:24:37.437Z,75.60
2017-11-12T04:27:07.078Z,75.30
2017-11-12T04:29:35.240Z,75.30
2017-11-12T04:32:03.385Z,75.50
2017-11-12T04:34:32.333Z,75.60
2017-11-12T04:37:00.462Z,75.50
2017-11-12T04:39:28.649Z,75.50
2017-11-12T04:41:56.795Z,75.30
2017-11-12T04:44:25.726Z,74.70
2017-11-12T04:46:53.904Z,74.70
2017-11-12T04:49:22.051Z,74.70
2017-11-12T04:51:50.212Z,74.40
2017-11-12T04:54:19.132Z,75.00
2017-11-12T04:56:47.278Z,75.00
2017-11-12T04:59:16.173Z,75.60
2017-11-12T05:01:45.092Z,75.80
2017-11-12T05:04:13.245Z,75.80
2017-11-12T05:06:42.169Z,76.00
2017-11-12T05:09:10.344Z,76.00
2017-11-12T05:11:38.516Z,76.00
2017-11-12T05:14:06.643Z,76.60
2017-11-12T05:16:35.330Z,76.30
2017-11-12T05:19:03.462Z,76.10
2017-11-12T05:21:31.705Z,76.60
2017-11-12T05:24:00.598Z,75.80
2017-11-12T05:26:29.508Z,75.70
2017-11-12T05:28:57.636Z,75.60
2017-11-12T05:31:25.798Z,75.40
2017-11-12T05:33:54.145Z,75.00
2017-11-12T05:36:22.303Z,75.00
2017-11-12T05:38:50.777Z,75.10
2017-11-12T05:41:19.684Z,75.30
2017-11-12T05:43:47.821Z,75.30
2017-11-12T05:46:15.990Z,75.50
2017-11-12T05:48:44.115Z,75.70
2017-11-12T05:51:12.288Z,75.70
2017-11-12T05:53:40.527Z,75.70
2017-11-12T05:56:09.426Z,75.40
2017-11-12T05:58:38.470Z,75.50
2017-11-12T06:01:06.625Z,75.50
2017-11-12T06:03:34.874Z,75.80
2017-11-12T06:06:03.014Z,75.70
2017-11-12T06:08:31.181Z,75.40
2017-11-12T06:10:59.324Z,74.90
2017-11-12T06:13:27.536Z,75.40
2017-11-12T06:15:55.663Z,75.50
2017-11-12T06:18:23.810Z,75.40
2017-11-12T06:20:52.702Z,75.40
2017-11-12T06:23:21.620Z,75.30
2017-11-12T06:25:49.743Z,75.20
2017-11-12T06:28:17.927Z,74.20
2017-11-12T06:30:46.833Z,74.00
2017-11-12T06:33:15.747Z,74.60
2017-11-12T06:35:43.875Z,74.60
2017-11-12T06:38:12.052Z,75.70
2017-11-12T06:40:40.193Z,76.20
2017-11-12T06:43:08.375Z,76.10
2017-11-12T06:45:36.503Z,76.00
2017-11-12T06:48:05.409Z,76.20
2017-11-12T06:50:33.532Z,76.20
2017-11-12T06:53:01.688Z,76.20
2017-11-12T06:55:29.815Z,76.10
2017-11-12T06:57:58.733Z,75.90
2017-11-12T07:00:26.872Z,75.90
2017-11-12T07:02:55.801Z,75.20
2017-11-12T07:05:23.931Z,75.20
2017-11-12T07:07:52.852Z,75.20
2017-11-12T07:10:20.989Z,75.10
2017-11-12T07:12:49.143Z,74.90
2017-11-12T07:15:17.276Z,74.70
2017-11-12T07:17:45.414Z,74.70
2017-11-12T07:20:13.530Z,74.40
2017-11-12T07:22:41.680Z,74.10
2017-11-12T07:25:09.807Z,74.00
2017-11-12T07:27:37.939Z,73.90
2017-11-12T07:30:06.108Z,75.20
2017-11-12T07:32:34.225Z,72.90
2017-11-12T07:35:02.480Z,72.00
2017-11-12T07:37:30.638Z,72.50
2017-11-12T07:39:58.788Z,73.60
2017-11-12T07:42:27.672Z,73.50
2017-11-12T07:44:56.593Z,74.80
2017-11-12T07:47:24.728Z,74.20
2017-11-12T07:49:52.882Z,74.40
2017-11-12T07:52:21.008Z,74.60
2017-11-12T07:54:49.152Z,74.20
2017-11-12T07:57:18.056Z,73.60
2017-11-12T07:59:46.973Z,73.00
2017-11-12T08:02:15.093Z,73.00
2017-11-12T08:04:43.241Z,73.30
2017-11-12T08:07:11.460Z,73.00
2017-11-12T08:09:39.716Z,72.30
2017-11-12T08:12:07.862Z,72.70
2017-11-12T08:14:36.104Z,71.50
2017-11-12T08:17:05.001Z,72.60
2017-11-12T08:19:33.154Z,72.60
2017-11-12T08:22:01.268Z,72.50
2017-11-12T08:24:29.446Z,72.80
2017-11-12T08:26:57.568Z,72.20
2017-11-12T08:29:25.711Z,71.60
2017-11-12T08:31:53.835Z,71.50
2017-11-12T08:34:22.746Z,71.60
2017-11-12T08:36:50.881Z,71.60
2017-11-12T08:39:19.061Z,71.90
2017-11-12T08:41:47.197Z,71.90
2017-11-12T08:44:15.346Z,71.40
2017-11-12T08:46:43.458Z,71.90
2017-11-12T08:49:11.588Z,72.40
2017-11-12T08:51:39.744Z,71.70
2017-11-12T08:54:08.649Z,70.60
2017-11-12T08:56:36.821Z,70.60
2017-11-12T08:59:05.705Z,71.50
2017-11-12T09:01:34.625Z,70.20
2017-11-12T09:04:02.773Z,70.20
2017-11-12T09:06:32.342Z,69.10
2017-11-12T09:09:00.611Z,69.10
2017-11-12T09:11:28.771Z,68.80
2017-11-12T09:13:57.055Z,68.80
2017-11-12T09:16:27.452Z,68.30
2017-11-12T09:18:56.192Z,68.20
2017-11-12T09:21:25.120Z,68.80
2017-11-12T09:23:53.245Z,68.80
2017-11-12T09:26:21.384Z,68.60
2017-11-12T09:28:49.524Z,66.80
2017-11-12T09:31:18.439Z,68.00
2017-11-12T09:33:46.584Z,68.00
2017-11-12T09:36:14.747Z,68.30
2017-11-12T09:38:42.858Z,69.00
2017-11-12T09:41:10.994Z,67.70
2017-11-12T09:43:39.125Z,68.80
2017-11-12T09:46:07.279Z,69.20
2017-11-12T09:48:35.405Z,68.60
2017-11-12T09:51:03.557Z,68.30
2017-11-12T09:53:31.680Z,68.70
2017-11-12T09:56:00.591Z,70.00
2017-11-12T09:58:28.721Z,70.00
2017-11-12T10:00:56.884Z,69.90
2017-11-12T10:03:25.004Z,69.40
2017-11-12T10:05:53.929Z,69.20
2017-11-12T10:08:22.053Z,69.20
2017-11-12T10:10:50.952Z,70.20
2017-11-12T10:13:19.876Z,69.50
2017-11-12T10:15:48.037Z,69.60
2017-11-12T10:18:16.210Z,69.70
2017-11-12T10:20:44.353Z,70.10
2017-11-12T10:23:13.788Z,69.50
2017-11-12T10:25:41.945Z,69.40
2017-11-12T10:28:10.856Z,69.20
2017-11-12T10:30:38.992Z,69.10
2017-11-12T10:33:07.149Z,68.80
2017-11-12T10:35:35.310Z,69.20
2017-11-12T10:38:03.975Z,68.70
2017-11-12T10:40:32.291Z,68.00
2017-11-12T10:43:00.539Z,68.40
2017-11-12T10:45:28.685Z,68.90
2017-11-12T10:47:56.861Z,69.00
2017-11-12T10:50:24.994Z,68.20
2017-11-12T10:52:53.147Z,67.20
2017-11-12T10:55:21.279Z,66.90
2017-11-12T10:57:49.892Z,68.10
2017-11-12T11:00:18.179Z,67.30
2017-11-12T11:02:46.622Z,67.40
2017-11-12T11:05:14.823Z,67.20
2017-11-12T11:07:42.978Z,68.00
2017-11-12T11:10:11.118Z,68.00
2017-11-12T11:12:40.036Z,67.60
2017-11-12T11:15:08.181Z,67.60
2017-11-12T11:17:36.331Z,68.20
2017-11-12T11:20:04.467Z,67.90
2017-11-12T11:22:32.604Z,68.10
2017-11-12T11:25:01.527Z,68.50
2017-11-12T11:27:30.089Z,68.50
2017-11-12T11:29:58.253Z,68.50
2017-11-12T11:32:27.184Z,68.60
2017-11-12T11:34:55.313Z,68.60
2017-11-12T11:37:23.463Z,68.50
2017-11-12T11:39:51.592Z,68.40
2017-11-12T11:42:19.744Z,68.30
2017-11-12T11:44:47.883Z,69.10
2017-11-12T11:47:16.210Z,69.90
2017-11-12T11:49:44.456Z,70.30
2017-11-12T11:52:12.580Z,69.60
2017-11-12T11:54:40.747Z,69.80
2017-11-12T11:57:09.176Z,69.70
2017-11-12T11:59:37.395Z,69.30
2017-11-12T12:02:05.557Z,69.00
2017-11-12T12:04:34.476Z,69.60
2017-11-12T12:07:02.613Z,69.60
2017-11-12T12:09:31.529Z,69.30
2017-11-12T12:11:59.662Z,69.30
2017-11-12T12:14:27.826Z,69.60
2017-11-12T12:16:55.958Z,69.80
2017-11-12T12:19:24.229Z,70.50
2017-11-12T12:21:52.423Z,70.30
2017-11-12T12:24:20.604Z,70.70
2017-11-12T12:26:48.759Z,70.40
2017-11-12T12:29:16.912Z,70.30
2017-11-12T12:31:45.036Z,70.60
2017-11-12T12:34:13.199Z,70.20
2017-11-12T12:36:41.311Z,69.60
2017-11-12T12:39:10.235Z,69.20
2017-11-12T12:41:38.354Z,69.20
2017-11-12T12:44:06.539Z,69.60
2017-11-12T12:46:34.671Z,69.80
2017-11-12T12:49:02.807Z,69.20
2017-11-12T12:51:30.938Z,69.10
2017-11-12T12:53:59.104Z,68.00
2017-11-12T12:56:27.261Z,66.80
2017-11-12T12:58:55.408Z,66.10
2017-11-12T13:01:24.310Z,67.40
2017-11-12T13:03:53.288Z,68.00
2017-11-12T13:06:22.223Z,67.40
2017-11-12T13:08:50.351Z,67.40
2017-11-12T13:11:19.396Z,67.80
2017-11-12T13:13:47.508Z,67.70
2017-11-12T13:16:15.707Z,67.80
2017-11-12T13:18:43.939Z,67.50
2017-11-12T13:21:12.103Z,67.30
2017-11-12T13:23:40.219Z,67.30
2017-11-12T13:26:09.139Z,67.60
2017-11-12T13:28:37.301Z,67.60
2017-11-12T13:31:05.698Z,67.90
2017-11-12T13:33:33.922Z,67.10
2017-11-12T13:36:02.125Z,66.20
2017-11-12T13:38:30.319Z,67.40
2017-11-12T13:40:58.465Z,68.10
2017-11-12T13:43:27.388Z,69.20
2017-11-12T13:45:55.533Z,69.20
2017-11-12T13:48:24.428Z,69.60
2017-11-12T13:50:52.588Z,69.60
2017-11-12T13:53:21.471Z,71.10
2017-11-12T13:55:50.114Z,71.80
2017-11-12T13:58:18.267Z,71.20
2017-11-12T14:00:46.424Z,71.50
2017-11-12T14:03:14.551Z,71.20
2017-11-12T14:05:42.696Z,71.70
2017-11-12T14:08:10.826Z,72.60
2017-11-12T14:10:39.740Z,71.90
2017-11-12T14:13:07.880Z,71.90
2017-11-12T14:15:36.051Z,72.90
2017-11-12T14:18:04.199Z,72.60
2017-11-12T14:20:32.335Z,73.40
2017-11-12T14:23:00.457Z,74.40
2017-11-12T14:25:28.633Z,74.30
2017-11-12T14:27:56.756Z,74.50
2017-11-12T14:30:24.910Z,74.70
2017-11-12T14:32:53.816Z,73.90
2017-11-12T14:35:21.944Z,73.90
2017-11-12T14:37:50.089Z,74.20
2017-11-12T14:40:18.220Z,74.80
2017-11-12T14:42:47.238Z,75.40
2017-11-12T14:45:15.369Z,75.30
2017-11-12T14:47:43.519Z,76.00
2017-11-12T14:50:11.651Z,75.80
2017-11-12T14:52:39.910Z,75.80
2017-11-12T14:55:08.822Z,76.30
2017-11-12T14:57:36.978Z,76.30
2017-11-12T15:00:05.287Z,76.10
2017-11-12T15:02:39.016Z,76.20
2017-11-12T15:05:07.141Z,76.60
2017-11-12T15:07:36.060Z,75.80
2017-11-12T15:10:04.192Z,75.80
2017-11-12T15:12:32.341Z,75.60
2017-11-12T15:15:00.476Z,76.30
2017-11-12T15:17:28.625Z,76.80
2017-11-12T15:19:56.743Z,77.20
2017-11-12T15:22:24.882Z,77.70
2017-11-12T15:24:53.780Z,78.00
2017-11-12T15:27:22.692Z,77.40
2017-11-12T15:29:50.836Z,77.40
2017-11-12T15:32:19.757Z,77.30
2017-11-12T15:34:47.904Z,77.30
2017-11-12T15:37:16.824Z,77.20
2017-11-12T15:39:44.973Z,77.20
2017-11-12T15:42:13.884Z,77.00
2017-11-12T15:44:42.134Z,77.00
2017-11-12T15:47:10.342Z,77.40
2017-11-12T15:49:38.461Z,77.40
2017-11-12T15:52:06.600Z,77.80
2017-11-12T15:54:34.721Z,77.90
2017-11-12T15:57:02.875Z,78.00
2017-11-12T15:59:30.995Z,78.10
2017-11-12T16:01:59.892Z,77.20
2017-11-12T16:04:28.051Z,77.20
2017-11-12T16:06:56.943Z,77.70
2017-11-12T16:09:25.856Z,77.20
2017-11-12T16:11:53.972Z,77.10
2017-11-12T16:14:22.118Z,77.10
2017-11-12T16:16:50.236Z,77.70
2017-11-12T16:19:18.392Z,77.70
2017-11-12T16:21:46.538Z,78.20
2017-11-12T16:24:14.699Z,78.30
2017-11-12T16:26:42.812Z,78.30
2017-11-12T16:29:10.964Z,78.20
2017-11-12T16:31:39.089Z,78.10
2017-11-12T16:34:08.001Z,77.90
2017-11-12T16:36:36.124Z,77.80
2017-11-12T16:39:04.283Z,77.90
2017-11-12T16:41:32.400Z,77.30
2017-11-12T16:44:01.309Z,77.30
2017-11-12T16:46:30.192Z,77.70
2017-11-12T16:48:59.117Z,77.40
2017-11-12T16:51:27.247Z,77.40
2017-11-12T16:53:56.158Z,77.50
2017-11-12T16:56:24.313Z,77.50
2017-11-12T16:58:53.219Z,76.50
2017-11-12T17:01:22.094Z,76.10
2017-11-12T17:03:50.266Z,76.10
2017-11-12T17:06:19.164Z,76.10
2017-11-12T17:08:48.063Z,75.20
2017-11-12T17:11:16.947Z,75.20
2017-11-12T17:13:45.854Z,75.00
2017-11-12T17:16:13.981Z,75.00
2017-11-12T17:18:42.121Z,75.70
2017-11-12T17:21:10.225Z,76.10
2017-11-12T17:23:38.750Z,75.50
2017-11-12T17:26:07.947Z,75.10
2017-11-12T17:28:36.837Z,75.60
2017-11-12T17:31:05.751Z,75.70
2017-11-12T17:33:33.875Z,75.70
2017-11-12T17:36:02.101Z,76.00
2017-11-12T17:38:30.239Z,76.50
2017-11-12T17:40:58.386Z,75.40
2017-11-12T17:43:26.512Z,75.50
2017-11-12T17:45:54.670Z,75.90
2017-11-12T17:48:23.561Z,76.20
2017-11-12T17:50:52.477Z,76.10
2017-11-12T17:53:21.032Z,76.10
2017-11-12T17:55:49.180Z,76.70
2017-11-12T17:58:17.289Z,76.60
2017-11-12T18:00:46.193Z,76.90
2017-11-12T18:03:15.075Z,76.80
2017-11-12T18:05:45.019Z,76.90
2017-11-12T18:08:14.095Z,76.70
2017-11-12T18:10:43.011Z,76.90
2017-11-12T18:13:11.144Z,76.90
2017-11-12T18:15:40.070Z,77.40
2017-11-12T18:18:08.187Z,77.40
2017-11-12T18:20:36.396Z,77.50
2017-11-12T18:23:05.303Z,77.10
2017-11-12T18:25:33.457Z,77.10
2017-11-12T18:28:02.350Z,76.90
2017-11-12T18:30:30.796Z,76.90
2017-11-12T18:32:58.991Z,76.20
2017-11-12T18:35:27.136Z,76.70
2017-11-12T18:37:55.288Z,76.60
2017-11-12T18:40:24.197Z,77.20
2017-11-12T18:42:52.315Z,77.10
2017-11-12T18:45:20.456Z,77.90
2017-11-12T18:47:48.577Z,78.10
2017-11-12T18:50:16.729Z,77.70
2017-11-12T18:52:44.884Z,77.80
2017-11-12T18:55:29.844Z,78.00
2017-11-12T18:57:58.895Z,77.90
2017-11-12T19:00:33.345Z,78.80
2017-11-12T19:03:16.366Z,78.80
2017-11-12T19:05:50.065Z,79.00
2017-11-12T19:08:19.004Z,78.60
2017-11-12T19:10:47.187Z,78.50
2017-11-12T19:13:15.324Z,78.50
2017-11-12T19:15:43.461Z,78.40
2017-11-12T19:18:13.819Z,78.60
2017-11-12T19:20:42.729Z,78.50
2017-11-12T19:23:16.482Z,78.50
2017-11-12T19:26:00.268Z,78.20
2017-11-12T19:28:44.221Z,78.20
2017-11-12T19:31:12.348Z,77.90
2017-11-12T19:33:41.293Z,78.50
2017-11-12T19:36:09.436Z,78.50
2017-11-12T19:38:37.582Z,78.10
2017-11-12T19:41:06.480Z,77.90
2017-11-12T19:43:35.832Z,78.10
2017-11-12T19:46:03.960Z,78.00
2017-11-12T19:48:32.111Z,78.40
2017-11-12T19:51:01.008Z,78.60
2017-11-12T19:53:29.913Z,78.60
2017-11-12T19:55:58.039Z,78.60
2017-11-12T19:58:26.199Z,78.40
2017-11-12T20:00:54.324Z,78.30
2017-11-12T20:03:22.498Z,78.00
2017-11-12T20:05:51.400Z,78.00
2017-11-12T20:08:19.559Z,78.00
2017-11-12T20:10:48.459Z,77.80
2017-11-12T20:13:16.745Z,78.50
2017-11-12T20:15:44.869Z,77.80
2017-11-12T20:18:14.283Z,77.90
2017-11-12T20:20:42.414Z,78.20
2017-11-12T20:23:10.568Z,77.90
2017-11-12T20:25:38.710Z,78.30
2017-11-12T20:28:06.863Z,78.20
2017-11-12T20:30:35.008Z,78.20
2017-11-12T20:33:03.174Z,78.00
2017-11-12T20:35:31.313Z,78.10
2017-11-12T20:38:00.248Z,79.00
2017-11-12T20:40:28.787Z,78.90
2017-11-12T20:42:56.953Z,78.90
2017-11-12T20:45:25.098Z,79.00
2017-11-12T20:47:53.257Z,79.10
2017-11-12T20:50:21.404Z,79.20
2017-11-12T20:52:50.303Z,78.80
2017-11-12T20:55:19.378Z,78.80
2017-11-12T20:57:48.374Z,78.50
2017-11-12T21:00:17.570Z,78.70
2017-11-12T21:02:46.473Z,78.90
2017-11-12T21:05:19.971Z,78.70
2017-11-12T21:07:48.858Z,78.30
2017-11-12T21:10:17.777Z,78.30
2017-11-12T21:12:45.921Z,78.30
2017-11-12T21:15:14.838Z,77.80
2017-11-12T21:17:43.113Z,77.80
2017-11-12T21:20:26.914Z,78.10
2017-11-12T21:23:06.079Z,78.50
2017-11-12T21:25:34.262Z,78.20
2017-11-12T21:28:03.259Z,78.20
2017-11-12T21:30:32.349Z,78.30
2017-11-12T21:33:17.261Z,77.90
2017-11-12T21:35:49.131Z,77.40
2017-11-12T21:38:17.250Z,77.50
2017-11-12T21:40:45.412Z,77.50
2017-11-12T21:43:14.324Z,77.80
2017-11-12T21:45:42.541Z,77.80
2017-11-12T21:48:10.677Z,77.30
2017-11-12T21:50:38.827Z,77.50
2017-11-12T21:53:07.718Z,77.00
2017-11-12T21:55:36.712Z,77.30
2017-11-12T21:58:05.627Z,77.10
2017-11-12T22:00:33.795Z,77.10
2017-11-12T22:03:01.921Z,77.10
2017-11-12T22:05:30.073Z,77.20
2017-11-12T22:07:58.201Z,77.10
2017-11-12T22:10:27.124Z,77.90
2017-11-12T22:12:55.290Z,77.80
2017-11-12T22:15:23.455Z,78.00
2017-11-12T22:17:51.584Z,77.60
2017-11-12T22:20:19.757Z,77.40
2017-11-12T22:22:47.885Z,77.70
2017-11-12T22:25:16.044Z,77.90
2017-11-12T22:27:44.213Z,77.70
2017-11-12T22:30:12.405Z,77.60
2017-11-12T22:32:40.917Z,77.90
2017-11-12T22:35:10.002Z,78.10
2017-11-12T22:37:38.137Z,78.00
2017-11-12T22:40:07.297Z,77.90
2017-11-12T22:42:35.637Z,77.90
2017-11-12T22:45:04.604Z,77.60
2017-11-12T22:47:33.517Z,77.70
2017-11-12T22:50:01.634Z,77.70
2017-11-12T22:52:30.852Z,77.60
2017-11-12T22:54:59.000Z,77.30
2017-11-12T22:57:27.328Z,77.50
2017-11-12T22:59:56.228Z,77.50
2017-11-12T23:02:24.367Z,77.50
2017-11-12T23:04:52.481Z,77.20
2017-11-12T23:07:20.622Z,77.40
2017-11-12T23:09:49.520Z,77.40
2017-11-12T23:12:18.437Z,77.50
2017-11-12T23:14:46.587Z,77.50
2017-11-12T23:17:15.511Z,77.40
2017-11-12T23:19:43.634Z,77.40
2017-11-12T23:22:11.797Z,77.30
2017-11-12T23:24:39.910Z,77.60
2017-11-12T23:27:08.834Z,77.80
2017-11-12T23:29:37.031Z,77.80
2017-11-12T23:32:05.176Z,77.90
2017-11-12T23:34:34.163Z,77.80
2017-11-12T23:37:02.305Z,77.90
2017-11-12T23:39:31.208Z,77.80
2017-11-12T23:42:00.120Z,78.10
2017-11-12T23:44:28.250Z,78.10
2017-11-12T23:46:56.401Z,77.50
2017-11-12T23:49:24.530Z,77.50
2017-11-12T23:51:52.684Z,77.40
2017-11-12T23:54:21.573Z,77.40
2017-11-12T23:56:50.484Z,77.00
2017-11-12T23:59:18.626Z,77.00
